Главная страница
METAR-TAF:

METAR-TAF

Аэропорты :

Belmar / Farmingdale, Нью-Джерси, США

широта: 40-11N, долгота: 074-08W, высота над уровнем моря: 48 м

Текущие метеонаблюдения

Эта сводка был подготовлена 18 минут назад, в 23:56 UTC
Ветер 4 Узел от западный-юго-западный
Температура 24°C
Влажность 54%
Давление 1016 hPa
Видимость: 16.1 км
ясное небо

METAR: KBLM 232356Z AUTO 24004KT 10SM CLR 24/14 A2999 RMK AO2 SLP159 T02390139 10267 20239 53009 TSNO

Время: 20:14 (00:14 UTC)


TAF: отсутствует

Метеонаблюдения и прогнозы для более 4000 аэропортов (сводки METAR и TAF).

Имеющиеся станции представлены на карте желтыми и красными точками.

Чтобы увидеть название станции, наведите на нее мышь.

Затем щелкните, чтобы увидеть метеонаблюдения и метеопрогнозы.

Управление картой: чтобы увеличить масштаб, щелкните зеленые кнопки с черным крестиком; чтобы уменьшить масштаб, щелкните зеленую кнопку с тире; для просмотра соседних карт щелкайте зеленые стрелки.


METAR-TAF: